STS Fryderyk Chopin — SPS2298 — position and weather

sailwx.info

Track history (hours):
 
Tides and Currents Weather Stations Pressure Air Temp Water Temp Dewpoint Dewpoint Depression Visibility Wind Speed Wind Dir Waves Ship Positions

STS Fryderyk Chopin (Poland)

Ship's website: http://www.fryderykchopin.pl/

Last reported at 2019-Feb-12 06:11 UTC. Time now 2019-Feb-16 03:53 UTC.
Position N 13°44' W 061°10'.

Length 44 m; draft 4.2 m.

Type: Sailing vessel. MMSI: 261000290.

Date/timePositionNaut miles runAvg speedWind from/ knotsBaromVisibWave heightAir tempDewpointWater temp
2019-Feb-12 06:11N 13°44' W 061°10'1 3.1
2019-Feb-12 06:00N 13°45' W 061°10'1 2.3
2019-Feb-12 05:30N 13°46' W 061°09'1 1.9
2019-Feb-12 04:59N 13°47' W 061°09'2 4.0
2019-Feb-12 04:29N 13°49' W 061°09'2 3.4
2019-Feb-12 04:00N 13°50' W 061°08'3 5.6
2019-Feb-12 03:23N 13°54' W 061°07'2 4.5
2019-Feb-12 02:57N 13°55' W 061°06'2 3.8
2019-Feb-12 02:27N 13°57' W 061°05'2 4.2
2019-Feb-12 01:57N 13°59' W 061°04'3 5.3
2019-Feb-12 01:29N 14°01' W 061°03'3 5.3
2019-Feb-12 00:52N 14°03' W 061°00'2 4.9
2019-Feb-12 00:25N 14°05' W 060°59'1 0.9
2019-Feb-11 23:23N 14°05' W 060°58'0 0.0
2019-Feb-11 18:38N 14°05' W 060°58'0 0.0
2019-Feb-11 12:11N 14°05' W 060°58'0 0.0
2019-Feb-11 09:08N 14°05' W 060°58'0 0.0
2019-Feb-11 08:26N 14°05' W 060°58'0 0.1
2019-Feb-11 07:59N 14°05' W 060°58'2 4.4
2019-Feb-11 07:26N 14°07' W 060°59'2 5.6
2019-Feb-11 07:00N 14°10' W 060°58'3 5.5
2019-Feb-11 06:30N 14°13' W 060°58'3 5.6
2019-Feb-11 06:00N 14°15' W 060°57'2 4.8
2019-Feb-11 05:30N 14°18' W 060°57'11 4.7
2019-Feb-11 03:13N 14°28' W 060°53'0 0.0
2019-Feb-10 21:45N 14°27' W 060°53'2 3.1
2019-Feb-10 21:13N 14°27' W 060°54'2 7.1
2019-Feb-10 20:59N 14°27' W 060°56'10 1.3
2019-Feb-10 13:08N 14°33' W 061°04'0 0.0
2019-Feb-10 12:59N 14°33' W 061°04'0 0.0
2019-Feb-10 12:26N 14°33' W 061°04'0 0.0
2019-Feb-10 11:23N 14°33' W 061°04'0 0.0
2019-Feb-10 10:59N 14°33' W 061°04'0 0.0
2019-Feb-10 10:29N 14°33' W 061°04'0 0.0
2019-Feb-10 09:59N 14°33' W 061°04'0 0.0
2019-Feb-10 09:29N 14°33' W 061°04'0 0.0
2019-Feb-10 08:59N 14°34' W 061°04'0 0.0
2019-Feb-10 08:29N 14°34' W 061°04'0 0.0
2019-Feb-10 07:59N 14°33' W 061°04'0 0.0
2019-Feb-10 07:29N 14°34' W 061°04'0 0.0
2019-Feb-10 06:59N 14°33' W 061°04'0 0.0
2019-Feb-10 06:29N 14°34' W 061°04'0 0.0
2019-Feb-10 05:59N 14°34' W 061°04'0 0.0
2019-Feb-10 05:29N 14°33' W 061°04'0 0.0
2019-Feb-10 04:59N 14°33' W 061°04'0 0.0
2019-Feb-10 04:26N 14°33' W 061°04'0 0.0
2019-Feb-10 03:59N 14°33' W 061°04'0 0.0
2019-Feb-10 03:29N 14°33' W 061°04'0 0.0
2019-Feb-10 02:59N 14°33' W 061°04'0 0.0
2019-Feb-10 02:29N 14°33' W 061°04'0 0.0
2019-Feb-10 01:59N 14°33' W 061°04'0 0.0
2019-Feb-10 01:29N 14°33' W 061°04'0 0.0
2019-Feb-10 00:59N 14°33' W 061°04'0 0.0
2019-Feb-10 00:29N 14°33' W 061°03'0 0.0
2019-Feb-09 23:59N 14°33' W 061°04'0 0.0
2019-Feb-09 23:29N 14°33' W 061°04'0 0.0
2019-Feb-09 22:59N 14°33' W 061°04'0 0.0
2019-Feb-09 22:26N 14°33' W 061°04'0 0.0
2019-Feb-09 21:59N 14°33' W 061°04'0 0.0
2019-Feb-09 21:29N 14°33' W 061°04'0 0.0
2019-Feb-09 20:59N 14°33' W 061°04'0 0.0
2019-Feb-09 20:29N 14°33' W 061°04'0 0.0
2019-Feb-09 19:59N 14°33' W 061°04'0 0.0
2019-Feb-09 19:29N 14°33' W 061°04'0 0.0
2019-Feb-09 18:59N 14°34' W 061°04'0 0.0
2019-Feb-09 18:29N 14°34' W 061°04'0 0.0
2019-Feb-09 17:59N 14°33' W 061°04'0 0.0
2019-Feb-09 17:29N 14°33' W 061°04'0 0.0
2019-Feb-09 16:59N 14°33' W 061°04'0 0.0
2019-Feb-09 16:29N 14°33' W 061°04'0 0.0
2019-Feb-09 15:59N 14°34' W 061°04'0 0.0
2019-Feb-09 15:29N 14°33' W 061°04'0 0.0
2019-Feb-09 14:59N 14°33' W 061°04'0 0.0
2019-Feb-09 14:29N 14°33' W 061°04'0 0.1
2019-Feb-09 13:59N 14°34' W 061°04'0 0.0
2019-Feb-09 13:26N 14°33' W 061°04'0 0.0
2019-Feb-09 12:59N 14°34' W 061°04'0 0.0
2019-Feb-09 12:29N 14°33' W 061°04'0 0.0
2019-Feb-09 11:59N 14°34' W 061°04'0 0.0
2019-Feb-09 11:29N 14°34' W 061°04'0 0.0
2019-Feb-09 10:59N 14°34' W 061°04'0 0.0
2019-Feb-09 10:23N 14°34' W 061°04'0 0.0
2019-Feb-09 09:59N 14°33' W 061°04'0 0.1
2019-Feb-09 09:26N 14°34' W 061°03'0 0.0
2019-Feb-09 08:59N 14°34' W 061°03'0 0.0
2019-Feb-09 08:29N 14°34' W 061°03'0 0.0
2019-Feb-09 07:59N 14°34' W 061°04'0 0.0
2019-Feb-09 07:29N 14°34' W 061°04'0 0.0
2019-Feb-09 06:59N 14°34' W 061°04'0 0.0
2019-Feb-09 06:29N 14°34' W 061°04'0 0.0
2019-Feb-09 05:59N 14°34' W 061°04'0 0.0
2019-Feb-09 05:29N 14°34' W 061°04'0 0.0
2019-Feb-09 04:59N 14°34' W 061°04'0 0.0
2019-Feb-09 04:26N 14°34' W 061°04'0 0.0
2019-Feb-09 03:59N 14°34' W 061°04'0 0.0
2019-Feb-09 03:29N 14°34' W 061°04'0 0.0
2019-Feb-09 02:59N 14°33' W 061°04'0 0.0
2019-Feb-09 02:29N 14°33' W 061°04'0 0.0
2019-Feb-09 01:59N 14°33' W 061°04'0 0.0
2019-Feb-09 01:29N 14°33' W 061°04'0 0.0
2019-Feb-09 00:59N 14°33' W 061°04'0 0.0
2019-Feb-09 00:29N 14°33' W 061°04'0 0.0
2019-Feb-08 23:59N 14°33' W 061°04'0 0.3
2019-Feb-08 23:31N 14°34' W 061°04'26 0.6
2019-Feb-07 01:45N 14°54' W 061°19'11 5.6
2019-Feb-06 23:50N 14°44' W 061°16'1 3.5
2019-Feb-06 23:29N 14°44' W 061°15'2 4.5
2019-Feb-06 23:00N 14°43' W 061°13'2 4.8
2019-Feb-06 22:30N 14°41' W 061°12'3 5.0
2019-Feb-06 22:00N 14°39' W 061°10'2 4.9
2019-Feb-06 21:30N 14°37' W 061°08'2 4.4
2019-Feb-06 21:00N 14°36' W 061°06'2 4.7
2019-Feb-06 20:30N 14°34' W 061°04'1 1.7
2019-Feb-06 19:50N 14°34' W 061°03'0 0.0
2019-Feb-06 19:29N 14°34' W 061°03'0 0.0
2019-Feb-06 18:59N 14°34' W 061°03'0 0.0
2019-Feb-06 18:29N 14°34' W 061°03'0 0.0
2019-Feb-06 17:56N 14°34' W 061°03'0 0.0
2019-Feb-06 17:29N 14°34' W 061°03'0 0.0
2019-Feb-06 16:50N 14°34' W 061°03'0 0.1
2019-Feb-06 16:29N 14°34' W 061°03'0 0.1
2019-Feb-06 15:59N 14°34' W 061°04'0 0.0
2019-Feb-06 15:29N 14°34' W 061°04'0 0.0
2019-Feb-06 14:59N 14°34' W 061°04'0 0.0
2019-Feb-06 14:29N 14°34' W 061°04'0 0.0
2019-Feb-06 13:56N 14°34' W 061°04'0 0.0
2019-Feb-06 13:29N 14°34' W 061°04'0 0.0
2019-Feb-06 12:59N 14°34' W 061°04'0 0.0
2019-Feb-06 12:29N 14°33' W 061°04'0 0.0
2019-Feb-06 11:59N 14°34' W 061°04'0 0.0
2019-Feb-06 11:29N 14°34' W 061°04'0 0.0
2019-Feb-06 10:29N 14°33' W 061°04'0 0.0
2019-Feb-06 09:59N 14°33' W 061°04'0 0.1
2019-Feb-06 09:02N 14°34' W 061°03'0 0.9
2019-Feb-06 09:00N 14°34' W 061°03'3 5.3
2019-Feb-06 08:31N 14°32' W 061°06'3 6.2
2019-Feb-06 08:01N 14°29' W 061°07'3 5.5
2019-Feb-06 07:31N 14°27' W 061°07'4 7.3
2019-Feb-06 07:00N 14°23' W 061°08'4 7.7
2019-Feb-06 06:31N 14°19' W 061°08'3 7.0
2019-Feb-06 06:01N 14°16' W 061°08'  
Track history (hours):
 
Tides and Currents Weather Stations Pressure Air Temp Water Temp Dewpoint Dewpoint Depression Visibility Wind Speed Wind Dir Waves Ship Positions

STS Fryderyk Chopin (Poland)

Ship's website: http://www.fryderykchopin.pl/

Last reported at 2019-Feb-12 06:11 UTC. Time now 2019-Feb-16 03:53 UTC.
Position N 13°44' W 061°10'.

Length 44 m; draft 4.2 m.

Type: Sailing vessel. MMSI: 261000290.

Date/timePositionNaut miles runAvg speedWind from/ knotsBaromVisibWave heightAir tempDewpointWater temp
2019-Feb-12 06:11N 13°44' W 061°10'1 3.1
2019-Feb-12 06:00N 13°45' W 061°10'1 2.3
2019-Feb-12 05:30N 13°46' W 061°09'1 1.9
2019-Feb-12 04:59N 13°47' W 061°09'2 4.0
2019-Feb-12 04:29N 13°49' W 061°09'2 3.4
2019-Feb-12 04:00N 13°50' W 061°08'3 5.6
2019-Feb-12 03:23N 13°54' W 061°07'2 4.5
2019-Feb-12 02:57N 13°55' W 061°06'2 3.8
2019-Feb-12 02:27N 13°57' W 061°05'2 4.2
2019-Feb-12 01:57N 13°59' W 061°04'3 5.3
2019-Feb-12 01:29N 14°01' W 061°03'3 5.3
2019-Feb-12 00:52N 14°03' W 061°00'2 4.9
2019-Feb-12 00:25N 14°05' W 060°59'1 0.9
2019-Feb-11 23:23N 14°05' W 060°58'0 0.0
2019-Feb-11 18:38N 14°05' W 060°58'0 0.0
2019-Feb-11 12:11N 14°05' W 060°58'0 0.0
2019-Feb-11 09:08N 14°05' W 060°58'0 0.0
2019-Feb-11 08:26N 14°05' W 060°58'0 0.1
2019-Feb-11 07:59N 14°05' W 060°58'2 4.4
2019-Feb-11 07:26N 14°07' W 060°59'2 5.6
2019-Feb-11 07:00N 14°10' W 060°58'3 5.5
2019-Feb-11 06:30N 14°13' W 060°58'3 5.6
2019-Feb-11 06:00N 14°15' W 060°57'2 4.8
2019-Feb-11 05:30N 14°18' W 060°57'11 4.7
2019-Feb-11 03:13N 14°28' W 060°53'0 0.0
2019-Feb-10 21:45N 14°27' W 060°53'2 3.1
2019-Feb-10 21:13N 14°27' W 060°54'2 7.1
2019-Feb-10 20:59N 14°27' W 060°56'10 1.3
2019-Feb-10 13:08N 14°33' W 061°04'0 0.0
2019-Feb-10 12:59N 14°33' W 061°04'0 0.0
2019-Feb-10 12:26N 14°33' W 061°04'0 0.0
2019-Feb-10 11:23N 14°33' W 061°04'0 0.0
2019-Feb-10 10:59N 14°33' W 061°04'0 0.0
2019-Feb-10 10:29N 14°33' W 061°04'0 0.0
2019-Feb-10 09:59N 14°33' W 061°04'0 0.0
2019-Feb-10 09:29N 14°33' W 061°04'0 0.0
2019-Feb-10 08:59N 14°34' W 061°04'0 0.0
2019-Feb-10 08:29N 14°34' W 061°04'0 0.0
2019-Feb-10 07:59N 14°33' W 061°04'0 0.0
2019-Feb-10 07:29N 14°34' W 061°04'0 0.0
2019-Feb-10 06:59N 14°33' W 061°04'0 0.0
2019-Feb-10 06:29N 14°34' W 061°04'0 0.0
2019-Feb-10 05:59N 14°34' W 061°04'0 0.0
2019-Feb-10 05:29N 14°33' W 061°04'0 0.0
2019-Feb-10 04:59N 14°33' W 061°04'0 0.0
2019-Feb-10 04:26N 14°33' W 061°04'0 0.0
2019-Feb-10 03:59N 14°33' W 061°04'0 0.0
2019-Feb-10 03:29N 14°33' W 061°04'0 0.0
2019-Feb-10 02:59N 14°33' W 061°04'0 0.0
2019-Feb-10 02:29N 14°33' W 061°04'0 0.0
2019-Feb-10 01:59N 14°33' W 061°04'0 0.0
2019-Feb-10 01:29N 14°33' W 061°04'0 0.0
2019-Feb-10 00:59N 14°33' W 061°04'0 0.0
2019-Feb-10 00:29N 14°33' W 061°03'0 0.0
2019-Feb-09 23:59N 14°33' W 061°04'0 0.0
2019-Feb-09 23:29N 14°33' W 061°04'0 0.0
2019-Feb-09 22:59N 14°33' W 061°04'0 0.0
2019-Feb-09 22:26N 14°33' W 061°04'0 0.0
2019-Feb-09 21:59N 14°33' W 061°04'0 0.0
2019-Feb-09 21:29N 14°33' W 061°04'0 0.0
2019-Feb-09 20:59N 14°33' W 061°04'0 0.0
2019-Feb-09 20:29N 14°33' W 061°04'0 0.0
2019-Feb-09 19:59N 14°33' W 061°04'0 0.0
2019-Feb-09 19:29N 14°33' W 061°04'0 0.0
2019-Feb-09 18:59N 14°34' W 061°04'0 0.0
2019-Feb-09 18:29N 14°34' W 061°04'0 0.0
2019-Feb-09 17:59N 14°33' W 061°04'0 0.0
2019-Feb-09 17:29N 14°33' W 061°04'0 0.0
2019-Feb-09 16:59N 14°33' W 061°04'0 0.0
2019-Feb-09 16:29N 14°33' W 061°04'0 0.0
2019-Feb-09 15:59N 14°34' W 061°04'0 0.0
2019-Feb-09 15:29N 14°33' W 061°04'0 0.0
2019-Feb-09 14:59N 14°33' W 061°04'0 0.0
2019-Feb-09 14:29N 14°33' W 061°04'0 0.1
2019-Feb-09 13:59N 14°34' W 061°04'0 0.0
2019-Feb-09 13:26N 14°33' W 061°04'0 0.0
2019-Feb-09 12:59N 14°34' W 061°04'0 0.0
2019-Feb-09 12:29N 14°33' W 061°04'0 0.0
2019-Feb-09 11:59N 14°34' W 061°04'0 0.0
2019-Feb-09 11:29N 14°34' W 061°04'0 0.0
2019-Feb-09 10:59N 14°34' W 061°04'0 0.0
2019-Feb-09 10:23N 14°34' W 061°04'0 0.0
2019-Feb-09 09:59N 14°33' W 061°04'0 0.1
2019-Feb-09 09:26N 14°34' W 061°03'0 0.0
2019-Feb-09 08:59N 14°34' W 061°03'0 0.0
2019-Feb-09 08:29N 14°34' W 061°03'0 0.0
2019-Feb-09 07:59N 14°34' W 061°04'0 0.0
2019-Feb-09 07:29N 14°34' W 061°04'0 0.0
2019-Feb-09 06:59N 14°34' W 061°04'0 0.0
2019-Feb-09 06:29N 14°34' W 061°04'0 0.0
2019-Feb-09 05:59N 14°34' W 061°04'0 0.0
2019-Feb-09 05:29N 14°34' W 061°04'0 0.0
2019-Feb-09 04:59N 14°34' W 061°04'0 0.0
2019-Feb-09 04:26N 14°34' W 061°04'0 0.0
2019-Feb-09 03:59N 14°34' W 061°04'0 0.0
2019-Feb-09 03:29N 14°34' W 061°04'0 0.0
2019-Feb-09 02:59N 14°33' W 061°04'0 0.0
2019-Feb-09 02:29N 14°33' W 061°04'0 0.0
2019-Feb-09 01:59N 14°33' W 061°04'0 0.0
2019-Feb-09 01:29N 14°33' W 061°04'0 0.0
2019-Feb-09 00:59N 14°33' W 061°04'0 0.0
2019-Feb-09 00:29N 14°33' W 061°04'0 0.0
2019-Feb-08 23:59N 14°33' W 061°04'0 0.3
2019-Feb-08 23:31N 14°34' W 061°04'26 0.6
2019-Feb-07 01:45N 14°54' W 061°19'11 5.6
2019-Feb-06 23:50N 14°44' W 061°16'1 3.5
2019-Feb-06 23:29N 14°44' W 061°15'2 4.5
2019-Feb-06 23:00N 14°43' W 061°13'2 4.8
2019-Feb-06 22:30N 14°41' W 061°12'3 5.0
2019-Feb-06 22:00N 14°39' W 061°10'2 4.9
2019-Feb-06 21:30N 14°37' W 061°08'2 4.4
2019-Feb-06 21:00N 14°36' W 061°06'2 4.7
2019-Feb-06 20:30N 14°34' W 061°04'1 1.7
2019-Feb-06 19:50N 14°34' W 061°03'0 0.0
2019-Feb-06 19:29N 14°34' W 061°03'0 0.0
2019-Feb-06 18:59N 14°34' W 061°03'0 0.0
2019-Feb-06 18:29N 14°34' W 061°03'0 0.0
2019-Feb-06 17:56N 14°34' W 061°03'0 0.0
2019-Feb-06 17:29N 14°34' W 061°03'0 0.0
2019-Feb-06 16:50N 14°34' W 061°03'0 0.1
2019-Feb-06 16:29N 14°34' W 061°03'0 0.1
2019-Feb-06 15:59N 14°34' W 061°04'0 0.0
2019-Feb-06 15:29N 14°34' W 061°04'0 0.0
2019-Feb-06 14:59N 14°34' W 061°04'0 0.0
2019-Feb-06 14:29N 14°34' W 061°04'0 0.0
2019-Feb-06 13:56N 14°34' W 061°04'0 0.0
2019-Feb-06 13:29N 14°34' W 061°04'0 0.0
2019-Feb-06 12:59N 14°34' W 061°04'0 0.0
2019-Feb-06 12:29N 14°33' W 061°04'0 0.0
2019-Feb-06 11:59N 14°34' W 061°04'0 0.0
2019-Feb-06 11:29N 14°34' W 061°04'0 0.0
2019-Feb-06 10:29N 14°33' W 061°04'0 0.0
2019-Feb-06 09:59N 14°33' W 061°04'0 0.1
2019-Feb-06 09:02N 14°34' W 061°03'0 0.9
2019-Feb-06 09:00N 14°34' W 061°03'3 5.3
2019-Feb-06 08:31N 14°32' W 061°06'3 6.2
2019-Feb-06 08:01N 14°29' W 061°07'3 5.5
2019-Feb-06 07:31N 14°27' W 061°07'4 7.3
2019-Feb-06 07:00N 14°23' W 061°08'4 7.7
2019-Feb-06 06:31N 14°19' W 061°08'3 7.0
2019-Feb-06 06:01N 14°16' W 061°08'  

Dump ship's entire track history